Time;durP1;ratioP1;P1;durP2;ratioP2;P2;SDS_P1;SDS_P2;PMS_P1;PMS_P2;Temp;Humidity;BMP_temperature;BMP_pressure;BME280_temperature;BME280_humidity;BME280_pressure;Samples;Min_cycle;Max_cycle;Signal;HPM_P1;HPM_P2
2022/11/05 00:10:28;;;;;;;17.10;5.65;;;;;;;;;;5090454;28;20125;-70
2022/11/05 00:18:25;;;;;;;19.27;6.55;;;;;;;;;;5090392;28;20055;-70
2022/11/05 00:20:51;;;;;;;25.33;7.32;;;;;;;;;;5090031;28;20044;-71
2022/11/05 00:26:06;;;;;;;20.58;6.90;;;;;;;;;;5090366;28;20143;-70
2022/11/05 00:28:32;;;;;;;19.95;7.05;;;;;;;;;;5090712;28;20140;-70
2022/11/05 00:31:02;;;;;;;20.17;7.90;;;;;;;;;;5091351;28;20051;-69
2022/11/05 00:33:29;;;;;;;18.80;7.30;;;;;;;;;;5089818;28;20170;-70
2022/11/05 00:35:55;;;;;;;21.48;7.40;;;;;;;;;;5089995;28;20052;-70
2022/11/05 00:38:21;;;;;;;16.55;6.65;;;;;;;;;;5089955;28;20063;-70
2022/11/05 00:40:47;;;;;;;15.90;6.63;;;;;;;;;;5089772;28;20048;-70
2022/11/05 00:45:57;;;;;;;23.02;7.32;;;;;;;;;;5089343;28;20143;-70
2022/11/05 00:51:09;;;;;;;17.55;6.55;;;;;;;;;;5089675;28;20143;-70
2022/11/05 00:53:35;;;;;;;20.70;7.10;;;;;;;;;;5089322;28;20067;-70
2022/11/05 00:56:01;;;;;;;20.88;6.35;;;;;;;;;;5089468;28;20127;-70
2022/11/05 00:58:28;;;;;;;16.08;6.05;;;;;;;;;;5087845;28;20463;-70
2022/11/05 01:00:55;;;;;;;18.75;6.43;;;;;;;;;;5089331;28;20125;-70
2022/11/05 01:03:22;;;;;;;18.15;6.75;;;;;;;;;;5089392;28;20075;-70
2022/11/05 01:05:49;;;;;;;20.55;6.53;;;;;;;;;;5089209;28;20083;-70
2022/11/05 01:08:16;;;;;;;16.23;5.93;;;;;;;;;;5089233;28;20169;-70
2022/11/05 01:10:47;;;;;;;17.58;6.88;;;;;;;;;;5089324;28;20044;-71
2022/11/05 01:13:14;;;;;;;17.90;5.85;;;;;;;;;;5088923;28;20047;-71
2022/11/05 01:15:40;;;;;;;20.88;6.55;;;;;;;;;;5089393;28;20163;-70
2022/11/05 01:18:06;;;;;;;;;;;;;;;;;;5089734;28;20040;-70
2022/11/05 01:20:32;;;;;;;15.75;5.47;;;;;;;;;;5089243;28;19927;-71
2022/11/05 01:22:58;;;;;;;16.95;5.47;;;;;;;;;;5089348;28;20067;-71
2022/11/05 01:25:24;;;;;;;14.05;5.82;;;;;;;;;;5093253;28;20040;-70
2022/11/05 01:27:50;;;;;;;;;;;;;;;;;;5093888;28;20456;-69
2022/11/05 01:30:17;;;;;;;17.27;5.63;;;;;;;;;;5092007;28;20024;-70
2022/11/05 01:32:43;;;;;;;14.98;5.30;;;;;;;;;;5093349;28;20074;-70
2022/11/05 01:35:10;;;;;;;23.30;5.25;;;;;;;;;;5093303;28;20473;-70
2022/11/05 01:37:36;;;;;;;14.80;4.82;;;;;;;;;;5093239;28;20357;-71
2022/11/05 01:40:03;;;;;;;15.07;5.10;;;;;;;;;;5092873;28;20093;-71
2022/11/05 01:42:30;;;;;;;18.02;4.70;;;;;;;;;;5093044;28;20044;-70
2022/11/05 01:45:06;;;;;;;21.30;4.85;;;;;;;;;;5092931;28;20066;-70
2022/11/05 01:47:47;;;;;;;16.52;4.93;;;;;;;;;;5092872;28;20474;-70
2022/11/05 01:50:31;;;;;;;15.80;4.72;;;;;;;;;;5093079;28;20036;-70
2022/11/05 01:53:02;;;;;;;20.20;5.43;;;;;;;;;;5092723;28;20066;-70
2022/11/05 01:55:30;;;;;;;14.23;4.72;;;;;;;;;;5091761;28;20142;-71
2022/11/05 01:57:57;;;;;;;14.23;4.38;;;;;;;;;;5092913;28;20051;-70
2022/11/05 02:00:24;;;;;;;17.02;4.85;;;;;;;;;;5092935;28;20415;-70
2022/11/05 02:02:50;;;;;;;16.38;4.97;;;;;;;;;;5092736;28;20039;-70
2022/11/05 02:05:16;;;;;;;16.42;4.72;;;;;;;;;;5091210;28;20055;-71
2022/11/05 02:07:44;;;;;;;17.27;5.00;;;;;;;;;;5092783;28;20090;-70
2022/11/05 02:10:16;;;;;;;20.40;4.78;;;;;;;;;;5092760;28;20048;-70
2022/11/05 02:12:44;;;;;;;16.80;4.80;;;;;;;;;;5092843;28;20044;-70
2022/11/05 02:15:11;;;;;;;19.70;4.50;;;;;;;;;;5092970;28;20048;-70
2022/11/05 02:17:37;;;;;;;13.75;4.32;;;;;;;;;;5092618;28;20070;-70
2022/11/05 02:20:22;;;;;;;16.77;5.32;;;;;;;;;;5090791;28;20052;-71
2022/11/05 02:23:07;;;;;;;14.75;4.93;;;;;;;;;;5092392;28;20040;-71
2022/11/05 02:25:39;;;;;;;13.57;4.32;;;;;;;;;;5092399;28;20200;-70
2022/11/05 02:28:43;;;;;;;16.42;5.07;;;;;;;;;;5092612;28;20044;-71
2022/11/05 02:31:21;;;;;;;18.58;4.53;;;;;;;;;;5069374;28;20144;-70
2022/11/05 02:33:55;;;;;;;13.85;4.70;;;;;;;;;;5069636;28;20182;-70
2022/11/05 02:36:27;;;;;;;17.20;4.55;;;;;;;;;;5083176;28;20063;-70
2022/11/05 02:38:53;;;;;;;14.52;4.43;;;;;;;;;;5090993;28;20048;-70
2022/11/05 02:41:25;;;;;;;15.60;4.05;;;;;;;;;;5092200;28;20074;-70
2022/11/05 02:43:54;;;;;;;15.93;4.38;;;;;;;;;;5090416;28;20052;-70
2022/11/05 02:46:25;;;;;;;17.50;4.80;;;;;;;;;;5091796;28;20055;-69
2022/11/05 02:49:04;;;;;;;14.23;5.10;;;;;;;;;;5091891;28;20052;-70
2022/11/05 02:51:39;;;;;;;12.52;4.28;;;;;;;;;;5091688;28;20066;-70
2022/11/05 02:54:25;;;;;;;13.10;4.32;;;;;;;;;;5092127;28;20390;-69
2022/11/05 02:56:53;;;;;;;15.80;4.53;;;;;;;;;;5091776;28;20070;-70
2022/11/05 02:59:19;;;;;;;13.52;4.03;;;;;;;;;;5091904;28;20052;-70
2022/11/05 03:01:46;;;;;;;15.68;4.28;;;;;;;;;;5091901;28;20085;-70
2022/11/05 03:04:13;;;;;;;15.45;3.97;;;;;;;;;;5091557;28;20084;-70
2022/11/05 03:06:39;;;;;;;16.95;4.38;;;;;;;;;;5073561;28;20433;-70
2022/11/05 03:09:24;;;;;;;11.77;3.88;;;;;;;;;;5091748;28;20051;-71
2022/11/05 03:11:57;;;;;;;12.10;4.05;;;;;;;;;;5091891;28;20117;-70
2022/11/05 03:14:32;;;;;;;14.07;3.92;;;;;;;;;;5091631;28;20047;-69
2022/11/05 03:17:26;;;;;;;14.80;3.97;;;;;;;;;;5091418;28;20160;-71
2022/11/05 03:20:14;;;;;;;18.52;4.28;;;;;;;;;;5085471;28;20120;-71
2022/11/05 03:22:53;;;;;;;13.43;3.90;;;;;;;;;;5073323;28;20052;-70
2022/11/05 03:25:25;;;;;;;15.23;4.07;;;;;;;;;;5096596;28;20117;-71
2022/11/05 03:27:58;;;;;;;11.88;3.40;;;;;;;;;;5100722;28;20044;-71
2022/11/05 03:30:24;;;;;;;14.95;4.05;;;;;;;;;;5100535;28;20044;-69
2022/11/05 03:32:50;;;;;;;;;;;;;;;;;;5090986;28;20102;-70
2022/11/05 03:35:22;;;;;;;11.90;3.53;;;;;;;;;;5091452;28;20013;-70
2022/11/05 03:37:50;;;;;;;13.57;3.90;;;;;;;;;;5091320;28;20132;-72
2022/11/05 03:40:18;;;;;;;13.90;3.78;;;;;;;;;;5090954;28;20048;-70
2022/11/05 03:42:45;;;;;;;11.63;3.67;;;;;;;;;;5090772;28;20131;-70
2022/11/05 03:45:17;;;;;;;13.38;3.95;;;;;;;;;;5091125;28;20161;-71
2022/11/05 03:47:45;;;;;;;11.82;3.92;;;;;;;;;;5089654;28;20089;-70
2022/11/05 03:50:34;;;;;;;12.80;4.05;;;;;;;;;;5090683;28;20120;-69
2022/11/05 03:53:03;;;;;;;14.65;3.97;;;;;;;;;;5087691;28;20056;-70
2022/11/05 03:55:35;;;;;;;14.98;3.85;;;;;;;;;;5090449;28;20051;-69
2022/11/05 03:58:03;;;;;;;11.57;3.88;;;;;;;;;;5090707;28;20103;-69
2022/11/05 04:00:29;;;;;;;11.63;3.90;;;;;;;;;;5088806;28;20101;-70
2022/11/05 04:02:55;;;;;;;13.57;4.07;;;;;;;;;;5090542;28;20052;-71
2022/11/05 04:05:21;;;;;;;12.77;4.13;;;;;;;;;;5090800;28;20096;-69
2022/11/05 04:13:23;;;;;;;15.02;4.75;;;;;;;;;;5089089;28;20139;-75
2022/11/05 04:18:35;;;;;;;12.88;3.90;;;;;;;;;;5090277;28;20506;-69
2022/11/05 04:26:30;;;;;;;14.90;4.10;;;;;;;;;;5090409;28;20159;-71
2022/11/05 04:31:41;;;;;;;14.23;4.40;;;;;;;;;;5090449;28;20154;-69
2022/11/05 04:34:07;;;;;;;13.82;4.20;;;;;;;;;;5088513;28;20056;-72
2022/11/05 04:36:33;;;;;;;14.15;4.25;;;;;;;;;;5089639;28;20058;-71
2022/11/05 04:38:59;;;;;;;16.38;4.85;;;;;;;;;;5089799;28;20099;-70
2022/11/05 04:41:25;;;;;;;13.80;4.30;;;;;;;;;;5089226;28;20086;-70
2022/11/05 04:43:52;;;;;;;18.48;5.18;;;;;;;;;;5089793;28;20448;-71
2022/11/05 04:46:18;;;;;;;13.52;5.00;;;;;;;;;;5089336;28;20154;-69
2022/11/05 04:51:34;;;;;;;12.93;4.60;;;;;;;;;;5661647;23;20116;-73
2022/11/05 04:54:00;;;;;;;12.52;4.82;;;;;;;;;;4893186;29;20057;-73
2022/11/05 04:56:26;;;;;;;13.57;4.85;;;;;;;;;;4894278;29;20147;-72
2022/11/05 04:58:52;;;;;;;11.77;4.78;;;;;;;;;;4898081;29;20120;-73
2022/11/05 05:01:19;;;;;;;16.42;6.10;;;;;;;;;;4896037;29;20045;-72
2022/11/05 05:03:49;;;;;;;13.82;5.80;;;;;;;;;;4892405;29;20056;-72
2022/11/05 05:06:15;;;;;;;14.10;5.57;;;;;;;;;;4893572;29;20067;-72
2022/11/05 05:08:41;;;;;;;14.10;5.75;;;;;;;;;;4893502;29;20070;-72
2022/11/05 05:11:10;;;;;;;16.05;6.05;;;;;;;;;;4893206;29;20056;-72
2022/11/05 05:13:36;;;;;;;15.63;6.53;;;;;;;;;;4893306;29;20049;-72
2022/11/05 05:16:06;;;;;;;15.27;7.05;;;;;;;;;;4892896;29;20052;-72
2022/11/05 05:18:32;;;;;;;16.25;6.80;;;;;;;;;;4893563;29;20044;-72
2022/11/05 05:23:43;;;;;;;19.85;7.78;;;;;;;;;;4893809;29;20216;-72
2022/11/05 05:26:09;;;;;;;16.85;8.15;;;;;;;;;;4893180;29;20211;-72
2022/11/05 05:28:35;;;;;;;18.67;8.32;;;;;;;;;;4893439;29;20044;-72
2022/11/05 05:31:02;;;;;;;15.13;8.07;;;;;;;;;;4891698;29;20137;-74
2022/11/05 05:33:28;;;;;;;18.85;8.43;;;;;;;;;;4893423;29;20430;-70
2022/11/05 05:35:57;;;;;;;19.98;8.25;;;;;;;;;;4893363;29;20156;-70
2022/11/05 05:38:23;;;;;;;16.15;8.30;;;;;;;;;;4892635;29;20072;-70
2022/11/05 05:40:49;;;;;;;18.10;7.95;;;;;;;;;;4891444;29;20203;-72
2022/11/05 05:43:15;;;;;;;21.33;8.50;;;;;;;;;;4891057;29;20101;-70
2022/11/05 05:45:41;;;;;;;17.17;7.65;;;;;;;;;;4893284;29;20092;-71
2022/11/05 05:48:08;;;;;;;23.02;8.48;;;;;;;;;;4891290;29;20052;-70
2022/11/05 05:50:34;;;;;;;17.25;8.13;;;;;;;;;;4893186;29;20408;-71
2022/11/05 05:53:00;;;;;;;20.42;8.48;;;;;;;;;;4891432;29;20068;-72
2022/11/05 05:55:26;;;;;;;18.58;7.72;;;;;;;;;;4892811;29;20116;-71
2022/11/05 05:57:53;;;;;;;17.52;8.05;;;;;;;;;;4893169;29;20132;-71
2022/11/05 06:00:20;;;;;;;20.55;8.35;;;;;;;;;;4892735;29;20104;-71
2022/11/05 06:02:46;;;;;;;20.05;8.57;;;;;;;;;;4893067;29;20514;-70
2022/11/05 06:05:12;;;;;;;17.88;8.13;;;;;;;;;;4891429;29;20354;-71
2022/11/05 06:07:38;;;;;;;18.05;8.57;;;;;;;;;;4892950;29;20426;-71
2022/11/05 06:10:05;;;;;;;17.27;8.90;;;;;;;;;;4894567;29;20374;-71
2022/11/05 06:12:31;;;;;;;18.30;8.35;;;;;;;;;;4896111;29;20192;-73
2022/11/05 06:14:57;;;;;;;17.73;8.70;;;;;;;;;;4896595;29;20469;-70
2022/11/05 06:17:23;;;;;;;17.15;8.10;;;;;;;;;;4896418;29;20048;-72
2022/11/05 06:19:49;;;;;;;16.88;8.88;;;;;;;;;;4896467;29;20067;-71
2022/11/05 06:22:15;;;;;;;16.88;7.78;;;;;;;;;;4895895;29;20097;-70
2022/11/05 06:24:41;;;;;;;18.65;7.85;;;;;;;;;;4894794;29;20074;-70
2022/11/05 06:27:07;;;;;;;17.50;8.32;;;;;;;;;;4896643;29;20052;-69
2022/11/05 06:29:33;;;;;;;17.55;8.13;;;;;;;;;;4896436;29;20053;-69
2022/11/05 06:31:59;;;;;;;22.75;8.43;;;;;;;;;;4895478;29;20044;-69
2022/11/05 06:34:25;;;;;;;16.17;7.82;;;;;;;;;;4895411;29;20237;-70
2022/11/05 06:36:51;;;;;;;19.25;8.57;;;;;;;;;;4895466;29;20060;-70
2022/11/05 06:39:17;;;;;;;16.98;7.50;;;;;;;;;;4894856;29;20100;-72
2022/11/05 06:41:44;;;;;;;20.75;8.68;;;;;;;;;;4895015;29;20045;-70
2022/11/05 06:44:10;;;;;;;16.20;8.20;;;;;;;;;;4894842;29;20062;-70
2022/11/05 06:46:36;;;;;;;17.15;8.27;;;;;;;;;;4894602;29;20144;-71
2022/11/05 06:49:02;;;;;;;19.30;7.88;;;;;;;;;;4894785;29;20075;-68
2022/11/05 06:51:29;;;;;;;20.13;8.07;;;;;;;;;;4894082;29;20140;-70
2022/11/05 06:53:55;;;;;;;15.57;7.97;;;;;;;;;;4895170;29;20084;-71
2022/11/05 06:56:21;;;;;;;18.10;8.32;;;;;;;;;;4878866;29;20391;-72
2022/11/05 06:58:47;;;;;;;19.02;8.85;;;;;;;;;;4897648;29;20469;-71
2022/11/05 07:01:13;;;;;;;15.85;7.80;;;;;;;;;;4895898;29;20376;-74
2022/11/05 07:03:39;;;;;;;19.75;7.90;;;;;;;;;;4895072;29;20052;-70
2022/11/05 07:06:06;;;;;;;19.33;8.20;;;;;;;;;;4895186;29;20056;-70
2022/11/05 07:08:33;;;;;;;16.95;8.45;;;;;;;;;;4895345;29;20053;-69
2022/11/05 07:10:59;;;;;;;17.92;8.23;;;;;;;;;;4895469;29;20129;-69
2022/11/05 07:13:25;;;;;;;19.98;7.97;;;;;;;;;;4895255;29;20048;-69
2022/11/05 07:15:51;;;;;;;;;;;;;;;;;;4895905;29;20059;-70
2022/11/05 07:18:17;;;;;;;18.20;8.35;;;;;;;;;;4895002;29;20331;-70
2022/11/05 07:20:43;;;;;;;18.58;8.35;;;;;;;;;;4894577;29;20132;-69
2022/11/05 07:23:11;;;;;;;19.83;8.50;;;;;;;;;;4894405;29;20108;-70
2022/11/05 07:25:37;;;;;;;17.15;8.35;;;;;;;;;;4894857;29;20057;-69
2022/11/05 07:28:03;;;;;;;19.77;9.07;;;;;;;;;;4878380;29;20060;-70
2022/11/05 07:30:30;;;;;;;16.88;8.57;;;;;;;;;;4893230;29;20147;-71
2022/11/05 07:32:56;;;;;;;21.58;9.20;;;;;;;;;;4895424;29;20067;-70
2022/11/05 07:35:23;;;;;;;17.48;9.48;;;;;;;;;;4893493;29;20075;-71
2022/11/05 07:37:50;;;;;;;17.27;8.57;;;;;;;;;;4894587;29;20052;-71
2022/11/05 07:40:19;;;;;;;17.30;8.43;;;;;;;;;;4894921;29;20084;-70
2022/11/05 07:42:47;;;;;;;18.33;9.05;;;;;;;;;;4894083;29;20124;-69
2022/11/05 07:45:13;;;;;;;20.40;8.88;;;;;;;;;;4894915;29;20052;-67
2022/11/05 07:47:46;;;;;;;18.73;9.10;;;;;;;;;;4893828;29;20571;-69
2022/11/05 07:50:13;;;;;;;17.70;9.38;;;;;;;;;;4893554;29;20354;-69
2022/11/05 07:52:39;;;;;;;21.95;8.63;;;;;;;;;;4893515;29;20136;-70
2022/11/05 07:55:05;;;;;;;17.90;9.23;;;;;;;;;;4893809;29;20052;-67
2022/11/05 07:57:31;;;;;;;;;;;;;;;;;;4893701;29;20068;-70
2022/11/05 07:59:57;;;;;;;21.88;8.15;;;;;;;;;;4892612;29;19923;-69
2022/11/05 08:02:23;;;;;;;19.63;9.02;;;;;;;;;;4893206;29;20148;-69
2022/11/05 08:04:49;;;;;;;18.88;8.82;;;;;;;;;;4893466;29;20083;-68
2022/11/05 08:07:15;;;;;;;16.98;8.70;;;;;;;;;;4893738;29;20469;-69
2022/11/05 08:09:41;;;;;;;18.70;9.27;;;;;;;;;;4892942;29;20132;-72
2022/11/05 08:12:08;;;;;;;20.23;9.65;;;;;;;;;;4892022;29;20056;-69
2022/11/05 08:14:34;;;;;;;20.08;9.90;;;;;;;;;;4882468;29;20060;-69
2022/11/05 08:17:00;;;;;;;19.20;9.35;;;;;;;;;;4891244;29;20136;-69
2022/11/05 08:19:26;;;;;;;19.45;8.35;;;;;;;;;;4888613;29;20079;-69
2022/11/05 08:21:52;;;;;;;18.60;8.05;;;;;;;;;;4874433;29;20100;-69
2022/11/05 08:24:18;;;;;;;22.40;8.70;;;;;;;;;;4874312;29;20049;-69
2022/11/05 08:26:44;;;;;;;18.65;8.70;;;;;;;;;;4888279;29;20088;-68
2022/11/05 08:29:10;;;;;;;21.38;8.93;;;;;;;;;;4872834;29;20045;-68
2022/11/05 08:31:36;;;;;;;17.33;8.60;;;;;;;;;;4877783;29;20109;-69
2022/11/05 08:34:02;;;;;;;21.02;9.70;;;;;;;;;;4892680;29;20538;-67
2022/11/05 08:36:28;;;;;;;19.60;9.60;;;;;;;;;;4892786;29;20105;-70
2022/11/05 08:38:54;;;;;;;20.85;8.77;;;;;;;;;;4893030;29;20056;-69
2022/11/05 08:41:20;;;;;;;15.88;8.88;;;;;;;;;;4884002;29;20464;-70
2022/11/05 08:43:47;;;;;;;19.40;8.73;;;;;;;;;;4886318;29;20056;-70
2022/11/05 08:46:13;;;;;;;20.65;9.77;;;;;;;;;;4882110;29;20128;-72
2022/11/05 08:48:39;;;;;;;16.23;8.07;;;;;;;;;;4891747;29;20048;-69
2022/11/05 08:51:05;;;;;;;21.50;8.27;;;;;;;;;;4892166;29;20092;-68
2022/11/05 08:53:31;;;;;;;19.13;8.82;;;;;;;;;;4891763;29;20084;-68
2022/11/05 08:55:58;;;;;;;20.13;8.43;;;;;;;;;;4892733;29;20454;-66
2022/11/05 08:58:24;;;;;;;19.38;9.13;;;;;;;;;;4891477;29;20083;-68
2022/11/05 09:00:50;;;;;;;19.02;8.38;;;;;;;;;;4890940;29;20148;-66
2022/11/05 09:03:17;;;;;;;17.02;7.50;;;;;;;;;;4891658;29;20049;-69
2022/11/05 09:05:43;;;;;;;;;;;;;;;;;;4893204;29;20107;-66
2022/11/05 09:08:10;;;;;;;17.48;7.50;;;;;;;;;;4891050;29;20018;-66
2022/11/05 09:10:37;;;;;;;15.90;7.72;;;;;;;;;;4890385;29;20091;-66
2022/11/05 09:13:03;;;;;;;;;;;;;;;;;;4891297;29;20407;-67
2022/11/05 09:15:29;;;;;;;15.60;6.65;;;;;;;;;;4891054;29;19935;-69
2022/11/05 09:17:55;;;;;;;;;;;;;;;;;;4892031;29;20130;-68
2022/11/05 09:20:22;;;;;;;16.45;6.32;;;;;;;;;;4890083;29;19949;-65
2022/11/05 09:22:48;;;;;;;15.60;7.03;;;;;;;;;;4891162;29;20049;-66
2022/11/05 09:25:14;;;;;;;12.25;6.35;;;;;;;;;;4891889;29;20060;-69
2022/11/05 09:27:40;;;;;;;16.02;7.22;;;;;;;;;;4891153;29;20064;-68
2022/11/05 09:30:07;;;;;;;15.30;5.82;;;;;;;;;;4890783;29;20430;-65
2022/11/05 09:32:33;;;;;;;19.92;6.82;;;;;;;;;;4890970;29;20076;-67
2022/11/05 09:35:00;;;;;;;16.75;6.72;;;;;;;;;;4875328;29;20059;-66
2022/11/05 09:37:26;;;;;;;;;;;;;;;;;;4892092;29;20128;-67
2022/11/05 09:39:53;;;;;;;14.75;5.80;;;;;;;;;;4875487;29;19924;-70
2022/11/05 09:42:20;;;;;;;19.00;6.28;;;;;;;;;;4890008;29;20381;-67
2022/11/05 09:44:48;;;;;;;14.13;5.47;;;;;;;;;;4893047;29;20055;-67
2022/11/05 09:47:23;;;;;;;12.82;5.82;;;;;;;;;;4895210;29;20067;-67
2022/11/05 09:49:51;;;;;;;13.95;5.80;;;;;;;;;;4895052;29;20063;-66
2022/11/05 09:52:22;;;;;;;16.60;6.13;;;;;;;;;;4894960;29;20126;-66
2022/11/05 09:54:49;;;;;;;16.35;6.38;;;;;;;;;;4895407;29;20056;-66
2022/11/05 09:57:25;;;;;;;15.30;6.20;;;;;;;;;;4880269;29;20049;-67
2022/11/05 09:59:53;;;;;;;15.05;6.60;;;;;;;;;;4895221;29;20559;-67
2022/11/05 10:02:31;;;;;;;15.93;5.95;;;;;;;;;;4894558;29;20116;-67
2022/11/05 10:04:59;;;;;;;16.77;6.38;;;;;;;;;;4894037;29;20048;-68
2022/11/05 10:07:26;;;;;;;14.65;6.32;;;;;;;;;;4878977;29;20049;-68
2022/11/05 10:09:56;;;;;;;15.60;5.80;;;;;;;;;;4894671;29;20049;-68
2022/11/05 10:12:40;;;;;;;16.50;5.60;;;;;;;;;;4893603;29;20052;-68
2022/11/05 10:15:12;;;;;;;12.90;5.28;;;;;;;;;;4896238;29;20064;-67
2022/11/05 10:17:40;;;;;;;13.13;5.40;;;;;;;;;;4893135;29;20522;-68
2022/11/05 10:20:14;;;;;;;13.93;5.80;;;;;;;;;;4894818;29;20374;-66
2022/11/05 10:22:40;;;;;;;13.68;5.43;;;;;;;;;;4894245;29;20040;-67
2022/11/05 10:25:19;;;;;;;13.38;5.45;;;;;;;;;;4894940;29;20075;-66
2022/11/05 10:27:49;;;;;;;13.90;4.60;;;;;;;;;;4892695;29;20360;-68
2022/11/05 10:30:15;;;;;;;15.07;4.85;;;;;;;;;;4894684;29;20085;-68
2022/11/05 10:32:42;;;;;;;12.98;4.90;;;;;;;;;;4894016;29;20154;-66
2022/11/05 10:35:11;;;;;;;13.35;5.53;;;;;;;;;;4894401;29;20064;-64
2022/11/05 10:37:37;;;;;;;14.18;5.25;;;;;;;;;;4895323;29;20064;-65
2022/11/05 10:40:13;;;;;;;15.18;5.60;;;;;;;;;;4892378;29;20079;-65
2022/11/05 10:42:48;;;;;;;13.35;5.60;;;;;;;;;;4893939;29;20135;-63
2022/11/05 10:45:20;;;;;;;14.10;5.50;;;;;;;;;;4894025;29;20056;-64
2022/11/05 10:48:01;;;;;;;13.60;5.13;;;;;;;;;;4894970;29;20060;-67
2022/11/05 10:50:29;;;;;;;15.63;5.78;;;;;;;;;;4895184;29;20055;-66
2022/11/05 10:52:55;;;;;;;13.18;5.63;;;;;;;;;;4893386;29;20068;-64
2022/11/05 10:55:24;;;;;;;13.32;5.00;;;;;;;;;;4893899;29;20055;-66
2022/11/05 10:57:50;;;;;;;11.15;4.97;;;;;;;;;;4893714;29;20068;-70
2022/11/05 11:00:22;;;;;;;12.13;4.75;;;;;;;;;;4893872;29;20180;-64
2022/11/05 11:02:56;;;;;;;14.35;4.85;;;;;;;;;;4895470;29;20060;-67
2022/11/05 11:05:30;;;;;;;18.23;4.90;;;;;;;;;;4894774;29;20270;-64
2022/11/05 11:08:00;;;;;;;13.10;4.82;;;;;;;;;;4893504;29;20048;-65
2022/11/05 11:10:27;;;;;;;14.32;4.90;;;;;;;;;;4893890;29;20123;-67
2022/11/05 11:12:54;;;;;;;15.07;5.13;;;;;;;;;;4892911;29;20155;-67
2022/11/05 11:15:20;;;;;;;12.05;4.63;;;;;;;;;;4893892;29;20093;-67
2022/11/05 11:17:47;;;;;;;13.60;4.60;;;;;;;;;;4893613;29;20172;-66
2022/11/05 11:20:30;;;;;;;14.02;5.18;;;;;;;;;;4892379;29;20497;-64
2022/11/05 11:23:00;;;;;;;11.75;4.25;;;;;;;;;;4891778;29;20053;-65
2022/11/05 11:25:28;;;;;;;13.93;4.28;;;;;;;;;;4893724;29;20124;-68
2022/11/05 11:27:54;;;;;;;13.57;4.25;;;;;;;;;;4893620;29;20051;-64
2022/11/05 11:30:20;;;;;;;15.45;4.05;;;;;;;;;;4892935;29;20048;-67
2022/11/05 11:32:47;;;;;;;11.77;4.05;;;;;;;;;;4892003;29;20097;-66
2022/11/05 11:35:19;;;;;;;14.15;4.15;;;;;;;;;;4893181;29;20096;-64
2022/11/05 11:37:45;;;;;;;11.70;4.28;;;;;;;;;;4894359;29;20135;-65
2022/11/05 11:40:16;;;;;;;11.38;3.60;;;;;;;;;;4894069;29;20128;-67
2022/11/05 11:42:50;;;;;;;13.75;4.03;;;;;;;;;;4893697;29;20048;-73
2022/11/05 11:45:23;;;;;;;11.10;3.50;;;;;;;;;;4892533;29;20053;-68
2022/11/05 11:47:49;;;;;;;10.95;3.70;;;;;;;;;;4893910;29;20127;-63
2022/11/05 11:50:33;;;;;;;13.25;3.85;;;;;;;;;;4883650;29;20056;-63
2022/11/05 11:53:17;;;;;;;9.85;3.65;;;;;;;;;;4892043;29;20072;-65
2022/11/05 11:55:58;;;;;;;13.15;3.78;;;;;;;;;;4892068;29;20052;-63
2022/11/05 11:58:42;;;;;;;12.48;3.80;;;;;;;;;;4893020;29;20406;-65
2022/11/05 12:01:23;;;;;;;14.32;3.75;;;;;;;;;;4893140;29;20298;-65
2022/11/05 12:03:55;;;;;;;14.85;3.55;;;;;;;;;;4892230;29;20358;-64
2022/11/05 12:06:30;;;;;;;12.38;3.63;;;;;;;;;;4892649;29;20131;-66
2022/11/05 12:09:08;;;;;;;9.57;3.40;;;;;;;;;;4891733;29;20056;-68
2022/11/05 12:11:53;;;;;;;11.05;3.60;;;;;;;;;;4892562;29;20080;-66
2022/11/05 12:14:27;;;;;;;13.60;3.63;;;;;;;;;;4892493;29;20155;-67
2022/11/05 12:17:10;;;;;;;13.02;3.70;;;;;;;;;;4892407;29;20053;-66
2022/11/05 12:19:55;;;;;;;10.90;3.83;;;;;;;;;;4891240;29;20053;-68
2022/11/05 12:22:44;;;;;;;11.07;3.17;;;;;;;;;;4892606;29;20056;-67
2022/11/05 12:25:16;;;;;;;10.00;3.15;;;;;;;;;;4889333;29;20060;-69
2022/11/05 12:27:57;;;;;;;12.45;3.53;;;;;;;;;;4891056;29;20135;-68
2022/11/05 12:30:23;;;;;;;13.05;3.20;;;;;;;;;;4890990;29;20059;-66
2022/11/05 12:32:53;;;;;;;10.52;3.08;;;;;;;;;;4891466;29;20112;-66
2022/11/05 12:35:21;;;;;;;9.13;3.25;;;;;;;;;;4893109;29;20555;-69
2022/11/05 12:37:57;;;;;;;11.90;3.40;;;;;;;;;;4892969;29;20064;-67
2022/11/05 12:40:41;;;;;;;11.20;3.30;;;;;;;;;;4893583;29;20052;-65
2022/11/05 12:43:29;;;;;;;9.45;2.55;;;;;;;;;;4890362;29;20116;-67
2022/11/05 12:45:55;;;;;;;7.15;2.30;;;;;;;;;;4902119;29;20088;-67
2022/11/05 12:48:31;;;;;;;8.57;2.17;;;;;;;;;;4890924;29;20056;-64
2022/11/05 12:50:58;;;;;;;6.35;2.20;;;;;;;;;;4892410;29;20049;-65
2022/11/05 12:53:33;;;;;;;9.82;2.72;;;;;;;;;;4892306;29;20064;-67
2022/11/05 12:56:01;;;;;;;8.73;2.60;;;;;;;;;;4890703;29;20048;-66
2022/11/05 12:58:32;;;;;;;8.15;2.65;;;;;;;;;;4890767;29;20501;-68
2022/11/05 13:01:02;;;;;;;8.45;2.30;;;;;;;;;;4890319;29;20080;-64
2022/11/05 13:03:36;;;;;;;7.57;2.47;;;;;;;;;;4884568;29;20099;-74
2022/11/05 13:06:07;;;;;;;6.88;2.10;;;;;;;;;;4892105;29;20048;-66
2022/11/05 13:08:38;;;;;;;8.70;2.45;;;;;;;;;;4892189;29;20052;-65
2022/11/05 13:11:13;;;;;;;7.95;2.30;;;;;;;;;;4892162;29;20052;-67
2022/11/05 13:13:42;;;;;;;7.75;2.40;;;;;;;;;;4892249;29;20135;-74
2022/11/05 13:16:27;;;;;;;15.80;2.60;;;;;;;;;;4875089;29;20048;-73
2022/11/05 13:18:56;;;;;;;10.40;2.40;;;;;;;;;;4891863;29;20044;-77
2022/11/05 13:21:23;;;;;;;10.15;2.70;;;;;;;;;;4883807;29;20044;-76
2022/11/05 13:23:55;;;;;;;10.93;2.80;;;;;;;;;;4891904;29;20052;-77
2022/11/05 13:26:27;;;;;;;9.73;2.60;;;;;;;;;;4891281;29;20084;-76
2022/11/05 13:29:04;;;;;;;8.65;2.92;;;;;;;;;;4889140;29;20053;-75
2022/11/05 13:31:40;;;;;;;9.27;3.03;;;;;;;;;;4890533;29;20286;-78
2022/11/05 13:34:09;;;;;;;6.93;2.58;;;;;;;;;;4890669;29;20072;-76
2022/11/05 13:39:57;;;;;;;11.82;3.00;;;;;;;;;;4887300;29;20053;-79
2022/11/05 13:42:36;;;;;;;10.10;2.90;;;;;;;;;;4891964;29;20044;-77
2022/11/05 13:45:20;;;;;;;10.68;2.97;;;;;;;;;;4892707;29;20558;-77
2022/11/05 13:47:52;;;;;;;13.00;2.70;;;;;;;;;;4892720;29;20169;-78
2022/11/05 13:50:30;;;;;;;10.63;3.17;;;;;;;;;;4891021;29;20120;-77
2022/11/05 13:53:14;;;;;;;9.55;2.90;;;;;;;;;;4891081;29;20049;-74
2022/11/05 13:55:54;;;;;;;10.07;2.80;;;;;;;;;;4892026;29;20398;-73
2022/11/05 13:58:39;;;;;;;14.50;3.92;;;;;;;;;;4892062;29;20045;-73
2022/11/05 14:01:24;;;;;;;11.60;3.70;;;;;;;;;;4891736;29;20048;-74
2022/11/05 14:03:51;;;;;;;12.40;3.60;;;;;;;;;;4891942;29;20586;-74
2022/11/05 14:06:29;;;;;;;15.85;4.55;;;;;;;;;;4891843;29;20115;-73
2022/11/05 14:09:00;;;;;;;18.10;6.15;;;;;;;;;;4892879;29;20103;-72
2022/11/05 14:11:31;;;;;;;13.73;5.38;;;;;;;;;;4892466;29;20052;-72
2022/11/05 14:14:00;;;;;;;14.43;4.97;;;;;;;;;;4891902;29;20445;-72
2022/11/05 14:16:28;;;;;;;16.38;6.22;;;;;;;;;;4890168;29;20112;-73
2022/11/05 14:19:14;;;;;;;14.50;5.63;;;;;;;;;;4891106;29;20075;-72
2022/11/05 14:21:47;;;;;;;13.45;5.22;;;;;;;;;;4888010;29;20511;-72
2022/11/05 14:24:25;;;;;;;18.73;5.85;;;;;;;;;;4886402;29;20060;-74
2022/11/05 14:27:01;;;;;;;13.45;5.20;;;;;;;;;;4869847;29;20060;-73
2022/11/05 14:29:41;;;;;;;16.45;5.75;;;;;;;;;;4891763;29;20060;-72
2022/11/05 14:32:16;;;;;;;16.73;6.13;;;;;;;;;;4893653;29;20195;-72
2022/11/05 14:34:47;;;;;;;16.25;6.30;;;;;;;;;;4896291;29;20056;-72
2022/11/05 14:37:21;;;;;;;16.77;6.38;;;;;;;;;;4895180;29;20148;-72
2022/11/05 14:39:47;;;;;;;14.75;5.93;;;;;;;;;;4905395;29;20489;-76
2022/11/05 14:42:16;;;;;;;15.30;6.60;;;;;;;;;;4897577;29;20533;-71
2022/11/05 14:44:57;;;;;;;17.58;6.13;;;;;;;;;;4886408;29;20064;-72
2022/11/05 14:47:24;;;;;;;17.15;6.93;;;;;;;;;;4909187;29;20048;-74
2022/11/05 14:50:10;;;;;;;17.27;7.10;;;;;;;;;;4887306;29;20108;-74
2022/11/05 14:52:37;;;;;;;16.50;6.80;;;;;;;;;;4890128;29;20052;-71
2022/11/05 14:55:04;;;;;;;17.30;6.88;;;;;;;;;;4891586;29;20053;-71
2022/11/05 14:57:43;;;;;;;17.77;7.10;;;;;;;;;;4885395;29;20414;-74
2022/11/05 15:00:35;;;;;;;16.42;6.43;;;;;;;;;;4891738;29;20491;-69
2022/11/05 15:03:24;;;;;;;14.02;6.40;;;;;;;;;;4906373;29;20144;-73
2022/11/05 15:05:51;;;;;;;17.85;7.30;;;;;;;;;;4883023;29;20482;-73
2022/11/05 15:08:26;;;;;;;15.70;6.57;;;;;;;;;;4907957;29;20172;-71
2022/11/05 15:11:18;;;;;;;16.23;6.28;;;;;;;;;;4913460;29;20056;-72
2022/11/05 15:13:48;;;;;;;14.07;6.50;;;;;;;;;;4893830;29;20072;-70
2022/11/05 15:16:20;;;;;;;17.88;7.22;;;;;;;;;;4875782;29;20053;-76
2022/11/05 15:18:46;;;;;;;16.95;6.78;;;;;;;;;;4895568;29;20070;-68
2022/11/05 15:21:14;;;;;;;13.55;6.45;;;;;;;;;;4893417;29;20111;-68
2022/11/05 15:23:44;;;;;;;15.32;6.88;;;;;;;;;;4892580;29;20167;-69
2022/11/05 15:26:14;;;;;;;14.82;6.38;;;;;;;;;;4885683;29;20049;-69
2022/11/05 15:28:47;;;;;;;15.35;6.82;;;;;;;;;;4889278;29;20366;-68
2022/11/05 15:31:13;;;;;;;17.45;6.65;;;;;;;;;;4890455;29;20048;-69
2022/11/05 15:33:44;;;;;;;15.45;6.43;;;;;;;;;;4878736;29;20131;-68
2022/11/05 15:36:30;;;;;;;15.77;6.47;;;;;;;;;;4885717;29;20052;-67
2022/11/05 15:38:57;;;;;;;17.67;6.65;;;;;;;;;;4889947;29;20048;-68